• pl
  • eng

Awiacja
NEWS
last updated: 12.09.2019 14:49<\/div>
Dear users,
We would like to inform you that from September 2nd a test form of the GAFOR forecast is available on our webpage. Please send your comments and suggestions to gafor@imgw.pl that will contribute to product development.
Click on the bold red name to decode a message. 16:31 18.09.2020
  • WIND
  • SIGNIFICANT EURO
  • SIGNIFICANT
  • SIGMET
  • AIRMET
  • TAF FC
  • TAF FT
  • METAR GG30
  • METAR GG00


METAR EPBY 181430Z 30008KT 270V340 CAVOK 19/04 Q1027=

METAR EPGD 181430Z 31010KT CAVOK 17/05 Q1027 =

METAR EPKK 181430Z 30004KT 270V340 CAVOK 17/05 Q1027 =

METAR EPKT 181430Z 34005KT 310V020 CAVOK 16/03 Q1028 =

METAR EPLB 181430Z 32010KT 290V350 CAVOK 17/05 Q1025 =

METAR EPLL 181430Z 29008KT 260V320 CAVOK 17/03 Q1028 =

METAR EPMO 181430Z 29008KT 260V320 CAVOK 18/04 Q1026 =

METAR EPPO 181430Z 33005KT CAVOK 18/01 Q1028 =

METAR EPRA 181430Z NIL=

METAR EPRZ 181430Z 32010KT CAVOK 17/04 Q1026 =

METAR EPSC 181430Z 27006KT 200V310 CAVOK 18/09 Q1028 =

METAR EPSY 181430Z 32009KT 290V350 CAVOK 17/05 Q1026=

METAR EPWA 181430Z 32009KT 290V350 CAVOK 18/05 Q1026 NOSIG=

METAR EPWR 181430Z VRB02KT CAVOK 18/02 Q1028 =

METAR EPZG 181430Z VRB02KT CAVOK 19/M00 Q1029 =
 METAR EPBY
Location:EPBY Bydgoszcz Szwederowo
Time:14:30 UTC
Average wind direction:300 °
Mean wind speed:8 knots
Wind direction from:270 °
Wind direction to:340 °
CAVOK:Visibility 10 km or more, NIL, NSC
Temperature:19 °C
Dew point:4 °C
QNH:1027 hPa
Awiacja.imgw.pl jest pogodowym serwisem informacyjnym
Instytutu Meteorologii i Gospodarki Wodnej Państwowego Instytutu Badawczego.
Copyright IMGW PIB 2009-2019© Wszelkie prawa zastrzeżone.